Time;durP1;ratioP1;P1;durP2;ratioP2;P2;SDS_P1;SDS_P2;PMS_P1;PMS_P2;Temp;Humidity;BMP_temperature;BMP_pressure;BME280_temperature;BME280_humidity;BME280_pressure;Samples;Min_cycle;Max_cycle;Signal;HPM_P1;HPM_P2
2023/05/28 00:00:15;;;;;;;14.05;5.60;;;;;;;;;;5023429;28;20053;-64
2023/05/28 00:02:44;;;;;;;14.40;5.80;;;;;;;;;;5001812;28;20033;-64
2023/05/28 00:05:10;;;;;;;15.90;5.90;;;;;;;;;;5027617;28;20033;-64
2023/05/28 00:07:36;;;;;;;15.00;6.70;;;;;;;;;;5015626;28;20041;-63
2023/05/28 00:10:03;;;;;;;14.23;5.88;;;;;;;;;;4998237;28;20040;-64
2023/05/28 00:12:29;;;;;;;17.58;6.13;;;;;;;;;;5015598;28;20034;-64
2023/05/28 00:14:55;;;;;;;14.23;6.10;;;;;;;;;;5008140;28;20060;-64
2023/05/28 00:17:22;;;;;;;16.63;5.57;;;;;;;;;;5028189;28;20060;-64
2023/05/28 00:19:48;;;;;;;15.32;5.85;;;;;;;;;;5009390;28;20491;-64
2023/05/28 00:22:14;;;;;;;15.85;6.32;;;;;;;;;;5021344;28;20053;-64
2023/05/28 00:24:40;;;;;;;11.82;5.90;;;;;;;;;;5021260;28;20041;-64
2023/05/28 00:27:07;;;;;;;16.77;6.10;;;;;;;;;;5026911;28;20040;-64
2023/05/28 00:29:33;;;;;;;14.82;6.10;;;;;;;;;;5028373;28;20490;-64
2023/05/28 00:31:59;;;;;;;13.27;5.57;;;;;;;;;;5007632;28;20116;-64
2023/05/28 00:34:26;;;;;;;18.40;6.63;;;;;;;;;;5026254;28;20403;-63
2023/05/28 00:36:53;;;;;;;15.40;5.78;;;;;;;;;;4998029;28;20226;-64
2023/05/28 00:39:20;;;;;;;14.32;5.38;;;;;;;;;;4980499;28;20427;-63
2023/05/28 00:41:46;;;;;;;11.73;5.72;;;;;;;;;;4982022;28;20053;-64
2023/05/28 00:44:13;;;;;;;15.60;6.30;;;;;;;;;;5010613;28;20072;-63
2023/05/28 00:46:41;;;;;;;15.68;6.43;;;;;;;;;;5025565;28;20430;-63
2023/05/28 00:49:10;;;;;;;14.88;6.10;;;;;;;;;;5005409;28;20045;-64
2023/05/28 00:51:36;;;;;;;15.93;6.70;;;;;;;;;;5024587;28;20037;-63
2023/05/28 00:54:03;;;;;;;15.20;7.07;;;;;;;;;;5025421;28;20064;-63
2023/05/28 00:56:31;;;;;;;13.13;6.90;;;;;;;;;;4996631;28;20053;-64
2023/05/28 00:58:59;;;;;;;13.95;7.45;;;;;;;;;;5008728;28;20050;-64
2023/05/28 01:01:26;;;;;;;14.57;7.05;;;;;;;;;;5021916;28;20042;-64
2023/05/28 01:03:53;;;;;;;19.17;6.45;;;;;;;;;;5021439;28;20387;-63
2023/05/28 01:06:20;;;;;;;15.13;7.20;;;;;;;;;;5017337;28;20053;-64
2023/05/28 01:08:48;;;;;;;18.02;6.85;;;;;;;;;;5010990;28;20510;-64
2023/05/28 01:11:17;;;;;;;16.15;6.55;;;;;;;;;;5003029;28;20026;-63
2023/05/28 01:13:45;;;;;;;13.07;6.63;;;;;;;;;;4998686;28;20782;-64
2023/05/28 01:16:11;;;;;;;11.40;6.25;;;;;;;;;;5026762;28;20033;-63
2023/05/28 01:18:39;;;;;;;16.35;6.68;;;;;;;;;;5026528;28;20045;-63
2023/05/28 01:21:06;;;;;;;16.58;6.82;;;;;;;;;;5007545;28;20037;-63
2023/05/28 01:23:43;;;;;;;12.00;6.07;;;;;;;;;;5005603;28;20045;-64
2023/05/28 01:26:15;;;;;;;14.95;7.03;;;;;;;;;;4999263;28;20046;-64
2023/05/28 01:28:45;;;;;;;12.38;6.18;;;;;;;;;;5009720;28;20048;-64
2023/05/28 01:31:13;;;;;;;15.25;5.75;;;;;;;;;;4999875;28;20049;-64
2023/05/28 01:33:43;;;;;;;14.65;6.68;;;;;;;;;;4997228;28;20089;-63
2023/05/28 01:36:15;;;;;;;;;;;;;;;;;;5013186;28;20040;-64
2023/05/28 01:38:43;;;;;;;14.05;6.32;;;;;;;;;;4979482;28;19914;-64
2023/05/28 01:41:11;;;;;;;14.05;5.93;;;;;;;;;;5012277;28;20045;-64
2023/05/28 01:43:39;;;;;;;12.02;5.75;;;;;;;;;;5000852;28;20419;-63
2023/05/28 01:46:05;;;;;;;16.80;6.15;;;;;;;;;;5006289;28;20044;-64
2023/05/28 01:48:33;;;;;;;17.00;7.18;;;;;;;;;;5002109;28;20049;-64
2023/05/28 01:51:00;;;;;;;15.27;6.22;;;;;;;;;;5001901;28;20029;-64
2023/05/28 01:53:26;;;;;;;14.80;6.18;;;;;;;;;;5003327;28;20054;-64
2023/05/28 01:55:55;;;;;;;15.00;6.15;;;;;;;;;;5000073;28;20037;-64
2023/05/28 01:58:23;;;;;;;12.75;5.85;;;;;;;;;;4996803;28;20053;-64
2023/05/28 02:01:02;;;;;;;13.15;5.97;;;;;;;;;;5000380;28;20041;-64
2023/05/28 02:03:28;;;;;;;10.00;5.60;;;;;;;;;;5013040;28;20048;-64
2023/05/28 02:05:55;;;;;;;12.27;5.72;;;;;;;;;;4995533;28;20042;-63
2023/05/28 02:08:21;;;;;;;14.50;5.50;;;;;;;;;;5000270;28;20037;-61
2023/05/28 02:10:47;;;;;;;16.08;5.75;;;;;;;;;;4993413;28;20037;-63
2023/05/28 02:13:13;;;;;;;12.18;5.40;;;;;;;;;;5001457;28;20042;-63
2023/05/28 02:15:40;;;;;;;14.50;5.78;;;;;;;;;;5020894;28;20056;-64
2023/05/28 02:18:10;;;;;;;12.52;5.40;;;;;;;;;;5003374;28;20037;-63
2023/05/28 02:20:36;;;;;;;11.10;5.25;;;;;;;;;;5001329;28;20037;-63
2023/05/28 02:23:02;;;;;;;14.27;5.78;;;;;;;;;;4997930;28;20065;-64
2023/05/28 02:25:28;;;;;;;12.90;5.68;;;;;;;;;;5028091;28;20064;-62
2023/05/28 02:27:54;;;;;;;13.10;5.00;;;;;;;;;;4994817;28;20049;-61
2023/05/28 02:30:21;;;;;;;13.35;5.28;;;;;;;;;;5006912;28;20041;-63
2023/05/28 02:32:48;;;;;;;14.00;5.10;;;;;;;;;;5006110;28;20041;-63
2023/05/28 02:35:18;;;;;;;12.18;4.95;;;;;;;;;;5007150;28;20498;-62
2023/05/28 02:37:44;;;;;;;14.50;5.32;;;;;;;;;;5021382;28;20503;-63
2023/05/28 02:40:11;;;;;;;12.88;4.95;;;;;;;;;;5002199;28;20057;-63
2023/05/28 02:42:37;;;;;;;11.55;5.43;;;;;;;;;;4994948;28;20042;-63
2023/05/28 02:45:04;;;;;;;9.02;4.75;;;;;;;;;;5016441;28;20054;-63
2023/05/28 02:47:31;;;;;;;11.10;5.20;;;;;;;;;;5020549;28;20119;-63
2023/05/28 02:49:58;;;;;;;13.57;5.00;;;;;;;;;;4997422;28;20044;-63
2023/05/28 02:52:24;;;;;;;15.55;5.13;;;;;;;;;;4995698;28;20048;-63
2023/05/28 02:54:50;;;;;;;12.07;5.10;;;;;;;;;;4994190;28;20038;-63
2023/05/28 02:57:16;;;;;;;13.95;6.15;;;;;;;;;;4998537;28;20033;-63
2023/05/28 02:59:42;;;;;;;14.18;5.15;;;;;;;;;;4998303;28;20554;-63
2023/05/28 03:02:09;;;;;;;16.35;5.50;;;;;;;;;;5005566;28;20514;-64
2023/05/28 03:04:35;;;;;;;11.93;5.10;;;;;;;;;;5024415;28;20096;-64
2023/05/28 03:07:02;;;;;;;11.93;5.22;;;;;;;;;;4991204;28;20065;-63
2023/05/28 03:09:28;;;;;;;12.82;4.97;;;;;;;;;;5024221;28;20040;-62
2023/05/28 03:11:54;;;;;;;11.40;5.68;;;;;;;;;;5003497;28;20030;-62
2023/05/28 03:14:21;;;;;;;13.90;4.90;;;;;;;;;;5001546;28;20045;-63
2023/05/28 03:16:47;;;;;;;9.68;4.60;;;;;;;;;;5018577;28;20540;-62
2023/05/28 03:19:21;;;;;;;10.93;5.30;;;;;;;;;;4996386;28;20050;-63
2023/05/28 03:21:47;;;;;;;11.35;4.80;;;;;;;;;;4993762;28;20499;-63
2023/05/28 03:24:15;;;;;;;8.88;4.68;;;;;;;;;;4993942;28;20049;-64
2023/05/28 03:26:44;;;;;;;9.98;5.60;;;;;;;;;;5008086;28;20053;-62
2023/05/28 03:29:12;;;;;;;15.00;5.28;;;;;;;;;;4998178;28;20056;-63
2023/05/28 03:31:47;;;;;;;11.55;4.93;;;;;;;;;;4997005;28;20438;-63
2023/05/28 03:34:20;;;;;;;13.07;5.50;;;;;;;;;;5004294;28;20060;-62
2023/05/28 03:36:46;;;;;;;12.00;4.65;;;;;;;;;;5017095;28;20034;-61
2023/05/28 03:39:13;;;;;;;13.45;5.25;;;;;;;;;;5000532;28;20384;-64
2023/05/28 03:41:39;;;;;;;14.52;5.03;;;;;;;;;;5001958;28;20042;-64
2023/05/28 03:44:08;;;;;;;13.20;5.03;;;;;;;;;;4996264;28;20056;-62
2023/05/28 03:46:35;;;;;;;14.13;5.50;;;;;;;;;;4996656;28;20514;-63
2023/05/28 03:49:01;;;;;;;11.32;5.20;;;;;;;;;;4993348;28;20053;-63
2023/05/28 03:51:28;;;;;;;13.20;5.13;;;;;;;;;;4996801;28;20036;-63
2023/05/28 03:53:55;;;;;;;14.60;5.22;;;;;;;;;;4985588;28;20029;-63
2023/05/28 03:56:22;;;;;;;14.35;5.28;;;;;;;;;;4999002;28;20038;-62
2023/05/28 03:58:49;;;;;;;10.32;4.97;;;;;;;;;;5012460;28;20038;-62
2023/05/28 04:01:15;;;;;;;11.50;4.85;;;;;;;;;;4992073;28;20054;-62
2023/05/28 04:03:41;;;;;;;11.93;5.00;;;;;;;;;;4992380;28;20049;-63
2023/05/28 04:06:08;;;;;;;15.52;5.65;;;;;;;;;;5001458;28;20044;-63
2023/05/28 04:08:34;;;;;;;11.07;5.18;;;;;;;;;;4999117;28;20037;-62
2023/05/28 04:11:01;;;;;;;16.90;5.35;;;;;;;;;;5000049;28;20041;-63
2023/05/28 04:13:28;;;;;;;10.80;5.20;;;;;;;;;;4992444;28;20037;-63
2023/05/28 04:15:54;;;;;;;13.23;5.18;;;;;;;;;;5005424;28;20038;-63
2023/05/28 04:18:20;;;;;;;14.90;5.47;;;;;;;;;;4993247;28;20042;-64
2023/05/28 04:20:47;;;;;;;11.85;5.32;;;;;;;;;;5000214;28;20407;-63
2023/05/28 04:23:13;;;;;;;12.32;5.78;;;;;;;;;;5009692;28;20415;-63
2023/05/28 04:25:39;;;;;;;12.02;4.90;;;;;;;;;;5020234;28;20031;-63
2023/05/28 04:28:05;;;;;;;10.73;5.07;;;;;;;;;;4992734;28;20507;-63
2023/05/28 04:30:32;;;;;;;14.77;5.30;;;;;;;;;;4994865;28;20514;-63
2023/05/28 04:32:59;;;;;;;13.65;5.95;;;;;;;;;;5004646;28;20046;-62
2023/05/28 04:35:26;;;;;;;16.45;5.50;;;;;;;;;;4993199;28;20046;-63
2023/05/28 04:37:53;;;;;;;15.68;5.20;;;;;;;;;;4995974;28;20057;-62
2023/05/28 04:40:19;;;;;;;11.88;5.20;;;;;;;;;;5014537;28;20045;-63
2023/05/28 04:42:47;;;;;;;17.95;5.78;;;;;;;;;;5008853;28;20487;-63
2023/05/28 04:45:14;;;;;;;12.52;5.05;;;;;;;;;;5005752;28;20418;-63
2023/05/28 04:47:43;;;;;;;12.13;5.40;;;;;;;;;;4998783;28;20041;-63
2023/05/28 04:50:11;;;;;;;14.15;5.15;;;;;;;;;;4998861;28;20411;-63
2023/05/28 04:52:37;;;;;;;12.57;5.40;;;;;;;;;;5026487;28;20040;-63
2023/05/28 04:55:05;;;;;;;11.65;5.13;;;;;;;;;;5027092;28;20037;-65
2023/05/28 04:57:32;;;;;;;11.43;5.05;;;;;;;;;;5012396;28;20053;-62
2023/05/28 05:00:00;;;;;;;15.07;6.00;;;;;;;;;;5005499;28;20038;-62
2023/05/28 05:02:26;;;;;;;15.43;5.15;;;;;;;;;;4999223;28;20038;-61
2023/05/28 05:04:53;;;;;;;17.67;6.00;;;;;;;;;;5013158;28;20040;-62
2023/05/28 05:07:22;;;;;;;14.20;5.75;;;;;;;;;;4995908;28;20050;-59
2023/05/28 05:09:48;;;;;;;17.30;6.60;;;;;;;;;;5011376;28;20034;-59
2023/05/28 05:12:14;;;;;;;13.30;6.30;;;;;;;;;;5000885;28;20402;-59
2023/05/28 05:14:42;;;;;;;21.15;6.95;;;;;;;;;;4996846;28;20048;-59
2023/05/28 05:17:08;;;;;;;19.25;7.55;;;;;;;;;;5001510;28;20550;-60
2023/05/28 05:19:35;;;;;;;22.67;8.13;;;;;;;;;;4969461;28;20038;-60
2023/05/28 05:22:02;;;;;;;23.90;9.02;;;;;;;;;;5028586;28;20033;-60
2023/05/28 05:24:29;;;;;;;20.95;8.57;;;;;;;;;;5004355;28;20033;-60
2023/05/28 05:26:56;;;;;;;23.52;10.40;;;;;;;;;;4999628;28;20045;-60
2023/05/28 05:29:22;;;;;;;26.55;9.75;;;;;;;;;;4990857;28;20038;-59
2023/05/28 05:31:49;;;;;;;25.60;10.10;;;;;;;;;;4989162;28;20036;-58
2023/05/28 05:34:15;;;;;;;27.30;10.23;;;;;;;;;;5008604;28;20034;-59
2023/05/28 05:37:00;;;;;;;28.00;10.65;;;;;;;;;;4999264;28;20046;-59
2023/05/28 05:39:49;;;;;;;24.98;10.32;;;;;;;;;;5011551;28;20450;-59
2023/05/28 05:42:32;;;;;;;25.13;10.18;;;;;;;;;;5000886;28;20037;-58
2023/05/28 05:44:58;;;;;;;29.02;11.05;;;;;;;;;;5000525;28;20046;-59
2023/05/28 05:47:24;;;;;;;31.65;11.45;;;;;;;;;;5002421;28;20665;-60
2023/05/28 05:49:52;;;;;;;30.30;11.75;;;;;;;;;;4988088;28;20401;-59
2023/05/28 05:52:19;;;;;;;28.17;11.25;;;;;;;;;;4997719;28;20038;-59
2023/05/28 05:54:48;;;;;;;32.75;11.45;;;;;;;;;;5001235;28;20046;-59
2023/05/28 05:57:14;;;;;;;34.42;11.13;;;;;;;;;;5003397;28;20045;-58
2023/05/28 05:59:40;;;;;;;30.20;12.40;;;;;;;;;;5003507;28;20053;-58
2023/05/28 06:02:08;;;;;;;30.15;12.05;;;;;;;;;;4979123;28;20040;-59
2023/05/28 06:04:34;;;;;;;30.58;10.93;;;;;;;;;;4981706;28;20049;-58
2023/05/28 06:07:35;;;;;;;30.63;10.27;;;;;;;;;;4938171;29;20061;-60
2023/05/28 06:10:20;;;;;;;28.13;11.63;;;;;;;;;;4971077;28;20042;-59
2023/05/28 06:12:46;;;;;;;29.80;11.35;;;;;;;;;;5008492;28;20044;-59
2023/05/28 06:15:13;;;;;;;27.65;10.85;;;;;;;;;;5000597;28;20057;-59
2023/05/28 06:17:41;;;;;;;31.67;11.57;;;;;;;;;;5003643;28;20034;-60
2023/05/28 06:20:08;;;;;;;30.42;11.25;;;;;;;;;;5000424;28;20515;-59
2023/05/28 06:22:35;;;;;;;26.50;10.85;;;;;;;;;;5005458;28;20391;-59
2023/05/28 06:25:02;;;;;;;29.60;11.73;;;;;;;;;;4998248;28;20551;-59
2023/05/28 06:27:28;;;;;;;26.15;10.88;;;;;;;;;;5004880;28;20410;-59
2023/05/28 06:29:54;;;;;;;31.48;11.07;;;;;;;;;;5000271;28;20060;-60
2023/05/28 06:32:21;;;;;;;29.90;10.27;;;;;;;;;;5001115;28;20038;-59
2023/05/28 06:34:48;;;;;;;26.27;10.85;;;;;;;;;;4996248;28;20515;-59
2023/05/28 06:37:14;;;;;;;30.33;10.52;;;;;;;;;;4992649;28;20451;-59
2023/05/28 06:39:41;;;;;;;28.00;10.55;;;;;;;;;;4999973;28;20400;-59
2023/05/28 06:42:07;;;;;;;24.23;9.98;;;;;;;;;;5008507;28;20407;-58
2023/05/28 06:44:38;;;;;;;29.92;10.68;;;;;;;;;;4989605;28;20029;-59
2023/05/28 06:47:10;;;;;;;26.70;10.35;;;;;;;;;;5002493;28;20385;-59
2023/05/28 06:49:36;;;;;;;29.70;10.40;;;;;;;;;;5022305;28;20040;-59
2023/05/28 06:52:02;;;;;;;32.60;10.15;;;;;;;;;;4998283;28;20041;-58
2023/05/28 06:54:29;;;;;;;27.08;10.02;;;;;;;;;;4978247;28;20037;-58
2023/05/28 06:56:55;;;;;;;29.80;10.73;;;;;;;;;;4993588;28;20022;-59
2023/05/28 06:59:40;;;;;;;23.20;9.82;;;;;;;;;;5018279;28;20411;-60
2023/05/28 07:02:06;;;;;;;29.70;10.05;;;;;;;;;;5028160;28;20057;-60
2023/05/28 07:04:41;;;;;;;32.08;10.52;;;;;;;;;;5026211;28;20053;-60
2023/05/28 07:07:15;;;;;;;30.90;11.52;;;;;;;;;;5004086;28;20048;-60
2023/05/28 07:09:41;;;;;;;29.27;9.68;;;;;;;;;;4992186;28;20045;-60
2023/05/28 07:12:07;;;;;;;31.17;9.63;;;;;;;;;;5000376;28;20045;-60
2023/05/28 07:14:36;;;;;;;29.30;9.43;;;;;;;;;;5006970;28;20596;-60
2023/05/28 07:17:03;;;;;;;26.77;9.27;;;;;;;;;;4980328;28;20574;-58
2023/05/28 07:19:30;;;;;;;25.88;10.38;;;;;;;;;;5001108;28;20045;-58
2023/05/28 07:21:57;;;;;;;36.63;10.77;;;;;;;;;;4997245;28;20042;-59
2023/05/28 07:24:24;;;;;;;29.13;10.40;;;;;;;;;;5004431;28;20036;-58
2023/05/28 07:26:50;;;;;;;25.75;9.38;;;;;;;;;;4977959;28;20049;-59
2023/05/28 07:29:18;;;;;;;29.73;9.30;;;;;;;;;;4997659;28;20034;-59
2023/05/28 07:31:45;;;;;;;25.55;10.13;;;;;;;;;;5010035;28;20037;-59
2023/05/28 07:34:12;;;;;;;26.85;9.65;;;;;;;;;;4982241;28;20049;-59
2023/05/28 07:36:40;;;;;;;35.83;10.20;;;;;;;;;;4994050;28;20050;-59
2023/05/28 07:39:07;;;;;;;27.85;9.48;;;;;;;;;;4991340;28;20042;-59
2023/05/28 07:41:35;;;;;;;27.02;10.02;;;;;;;;;;4991062;28;20058;-59
2023/05/28 07:44:15;;;;;;;24.60;8.30;;;;;;;;;;5006582;28;20498;-59
2023/05/28 07:46:41;;;;;;;26.27;8.63;;;;;;;;;;5013827;28;20045;-59
2023/05/28 07:49:21;;;;;;;27.52;9.45;;;;;;;;;;4989485;28;20052;-59
2023/05/28 07:51:48;;;;;;;33.47;9.20;;;;;;;;;;4995851;28;20089;-59
2023/05/28 07:54:21;;;;;;;31.20;10.80;;;;;;;;;;4998211;28;20045;-59
2023/05/28 07:56:48;;;;;;;31.20;9.63;;;;;;;;;;4992213;28;20044;-59
2023/05/28 07:59:24;;;;;;;28.23;9.93;;;;;;;;;;4994116;28;20108;-59
2023/05/28 08:01:52;;;;;;;29.17;10.13;;;;;;;;;;5005914;28;20048;-59
2023/05/28 08:04:18;;;;;;;28.35;10.48;;;;;;;;;;5004543;28;20056;-58
2023/05/28 08:06:45;;;;;;;25.52;10.63;;;;;;;;;;4999079;28;20490;-59
2023/05/28 08:09:17;;;;;;;32.35;11.10;;;;;;;;;;4993067;28;20053;-58
2023/05/28 08:11:44;;;;;;;24.00;10.30;;;;;;;;;;4993789;28;20052;-60
2023/05/28 08:14:10;;;;;;;28.38;10.00;;;;;;;;;;4997968;28;20045;-61
2023/05/28 08:16:39;;;;;;;32.03;11.13;;;;;;;;;;5006676;28;20033;-60
2023/05/28 08:19:24;;;;;;;28.98;10.60;;;;;;;;;;5024504;28;20498;-60
2023/05/28 08:21:53;;;;;;;30.95;10.45;;;;;;;;;;5011942;28;20041;-60
2023/05/28 08:24:21;;;;;;;30.88;10.32;;;;;;;;;;4986171;28;20040;-60
2023/05/28 08:26:47;;;;;;;25.08;11.00;;;;;;;;;;5027516;28;20041;-60
2023/05/28 08:29:13;;;;;;;31.95;10.60;;;;;;;;;;5008004;28;20470;-60
2023/05/28 08:31:45;;;;;;;31.70;10.73;;;;;;;;;;5008400;28;20049;-60
2023/05/28 08:34:26;;;;;;;29.48;12.32;;;;;;;;;;5003244;28;20049;-59
2023/05/28 08:36:52;;;;;;;32.42;12.48;;;;;;;;;;5003434;28;20037;-60
2023/05/28 08:39:26;;;;;;;32.55;12.30;;;;;;;;;;5007940;28;20048;-61
2023/05/28 08:41:54;;;;;;;32.53;11.02;;;;;;;;;;5000668;28;20030;-60
2023/05/28 08:44:20;;;;;;;34.33;10.07;;;;;;;;;;5007513;28;20049;-59
2023/05/28 08:46:47;;;;;;;26.83;9.63;;;;;;;;;;4997411;28;20412;-59
2023/05/28 08:49:37;;;;;;;22.20;9.35;;;;;;;;;;4996749;28;20052;-60
2023/05/28 08:52:07;;;;;;;27.85;9.10;;;;;;;;;;4998235;28;20045;-60
2023/05/28 08:54:34;;;;;;;24.23;8.90;;;;;;;;;;5003845;28;20431;-60
2023/05/28 08:57:03;;;;;;;22.17;8.65;;;;;;;;;;5005453;28;20048;-61
2023/05/28 08:59:31;;;;;;;26.15;8.98;;;;;;;;;;5001014;28;20045;-60
2023/05/28 09:01:57;;;;;;;28.83;9.38;;;;;;;;;;5005916;28;20042;-60
2023/05/28 09:04:23;;;;;;;24.00;8.75;;;;;;;;;;5002343;28;20038;-60
2023/05/28 09:06:53;;;;;;;18.13;7.75;;;;;;;;;;4981182;28;20038;-60
2023/05/28 09:09:29;;;;;;;18.15;7.45;;;;;;;;;;4996565;28;20423;-61
2023/05/28 09:12:09;;;;;;;18.85;8.18;;;;;;;;;;4999623;28;20025;-61
2023/05/28 09:14:41;;;;;;;24.35;8.88;;;;;;;;;;5017018;28;20068;-62
2023/05/28 09:17:09;;;;;;;20.15;8.27;;;;;;;;;;5005997;28;20044;-57
2023/05/28 09:19:36;;;;;;;20.77;7.68;;;;;;;;;;4983271;28;20034;-59
2023/05/28 09:22:03;;;;;;;15.95;6.97;;;;;;;;;;5001952;28;20056;-59
2023/05/28 09:24:54;;;;;;;19.85;7.85;;;;;;;;;;5026637;28;20428;-60
2023/05/28 09:27:36;;;;;;;18.83;8.25;;;;;;;;;;4995356;28;20509;-60
2023/05/28 09:30:09;;;;;;;18.48;7.00;;;;;;;;;;5021926;28;20052;-60
2023/05/28 09:32:36;;;;;;;21.73;7.05;;;;;;;;;;5015681;28;20630;-59
2023/05/28 09:35:06;;;;;;;14.70;6.53;;;;;;;;;;5012020;28;20058;-59
2023/05/28 09:37:35;;;;;;;19.63;6.78;;;;;;;;;;5002562;28;20057;-60
2023/05/28 09:40:03;;;;;;;19.92;7.03;;;;;;;;;;5025241;28;20068;-60
2023/05/28 09:42:42;;;;;;;16.75;6.38;;;;;;;;;;5011326;28;20041;-59
2023/05/28 09:45:09;;;;;;;18.40;6.28;;;;;;;;;;4990510;28;20049;-59
2023/05/28 09:47:45;;;;;;;19.63;6.93;;;;;;;;;;5019598;28;20042;-58
2023/05/28 09:50:12;;;;;;;14.65;6.38;;;;;;;;;;5020918;28;20049;-60
2023/05/28 09:52:40;;;;;;;18.77;6.55;;;;;;;;;;5021477;28;20046;-60
2023/05/28 09:55:07;;;;;;;21.92;6.53;;;;;;;;;;5009339;28;20041;-61
2023/05/28 09:57:38;;;;;;;13.23;6.72;;;;;;;;;;5026514;28;20060;-61
2023/05/28 10:00:19;;;;;;;15.32;6.63;;;;;;;;;;5023934;28;20053;-60
2023/05/28 10:03:12;;;;;;;16.38;6.30;;;;;;;;;;5013868;28;20046;-60
2023/05/28 10:05:43;;;;;;;16.42;6.30;;;;;;;;;;5020219;28;20040;-60
2023/05/28 10:08:15;;;;;;;17.73;7.72;;;;;;;;;;5025480;28;20049;-60
2023/05/28 10:10:45;;;;;;;15.70;5.93;;;;;;;;;;5009165;28;20506;-61
2023/05/28 10:13:12;;;;;;;16.02;6.03;;;;;;;;;;5024362;28;20498;-60
2023/05/28 10:15:39;;;;;;;11.82;6.15;;;;;;;;;;5018707;28;20049;-61
2023/05/28 10:18:06;;;;;;;13.98;6.25;;;;;;;;;;5010616;28;20046;-60
2023/05/28 10:20:32;;;;;;;13.32;6.43;;;;;;;;;;5026421;28;20029;-60
2023/05/28 10:23:00;;;;;;;14.45;5.90;;;;;;;;;;5027943;28;20034;-60
2023/05/28 10:25:26;;;;;;;14.75;5.97;;;;;;;;;;5028844;28;20033;-60
2023/05/28 10:27:59;;;;;;;14.88;5.68;;;;;;;;;;5021537;28;20052;-60
2023/05/28 10:30:36;;;;;;;15.45;5.45;;;;;;;;;;5019363;28;20037;-61
2023/05/28 10:33:07;;;;;;;15.95;5.80;;;;;;;;;;5021069;28;20395;-61
2023/05/28 10:35:35;;;;;;;13.98;5.90;;;;;;;;;;5009852;28;20046;-61
2023/05/28 10:38:06;;;;;;;14.35;6.82;;;;;;;;;;4996275;28;20133;-61
2023/05/28 10:40:34;;;;;;;15.55;5.80;;;;;;;;;;5016087;28;20091;-60
2023/05/28 10:43:01;;;;;;;11.67;5.27;;;;;;;;;;5021408;28;20046;-60
2023/05/28 10:45:38;;;;;;;11.93;5.88;;;;;;;;;;5005838;28;20639;-61
2023/05/28 10:48:05;;;;;;;15.23;5.43;;;;;;;;;;5023222;28;20060;-62
2023/05/28 10:50:32;;;;;;;12.18;5.50;;;;;;;;;;5010582;28;20454;-61
2023/05/28 10:53:06;;;;;;;15.48;5.47;;;;;;;;;;5011145;28;20042;-61
2023/05/28 10:55:53;;;;;;;14.20;5.80;;;;;;;;;;4999404;28;20038;-62
2023/05/28 10:58:23;;;;;;;12.20;5.25;;;;;;;;;;5024856;28;20380;-62
2023/05/28 11:00:49;;;;;;;12.25;5.70;;;;;;;;;;5026959;28;20033;-60
2023/05/28 11:03:15;;;;;;;14.80;5.55;;;;;;;;;;5027963;28;20041;-62
2023/05/28 11:05:42;;;;;;;13.57;5.63;;;;;;;;;;5018665;28;20034;-62
2023/05/28 11:08:08;;;;;;;12.95;5.70;;;;;;;;;;5015639;28;20037;-62
2023/05/28 11:10:34;;;;;;;15.02;6.28;;;;;;;;;;5026274;28;20045;-62
2023/05/28 11:13:01;;;;;;;12.82;5.38;;;;;;;;;;5021712;28;20026;-62
2023/05/28 11:15:27;;;;;;;13.35;6.22;;;;;;;;;;5018144;28;20037;-62
2023/05/28 11:17:54;;;;;;;14.80;6.03;;;;;;;;;;4994548;28;20049;-63
2023/05/28 11:20:24;;;;;;;15.18;5.72;;;;;;;;;;5010849;28;20424;-62
2023/05/28 11:22:51;;;;;;;25.27;9.55;;;;;;;;;;5016939;28;20045;-62
2023/05/28 11:25:21;;;;;;;16.05;5.72;;;;;;;;;;5021593;28;20495;-62
2023/05/28 11:27:50;;;;;;;15.57;6.07;;;;;;;;;;5021993;28;20048;-62
2023/05/28 11:30:17;;;;;;;12.27;5.82;;;;;;;;;;5022476;28;22080;-62
2023/05/28 11:32:45;;;;;;;14.20;5.85;;;;;;;;;;4993399;28;20037;-61
2023/05/28 11:35:14;;;;;;;14.75;5.82;;;;;;;;;;5011161;28;20060;-61
2023/05/28 11:37:42;;;;;;;15.05;6.07;;;;;;;;;;5014573;28;20041;-62
2023/05/28 11:40:10;;;;;;;11.98;6.50;;;;;;;;;;5021609;28;20033;-61
2023/05/28 11:42:42;;;;;;;12.68;5.55;;;;;;;;;;5018882;28;20033;-61
2023/05/28 11:45:11;;;;;;;11.80;6.07;;;;;;;;;;5014358;28;20492;-62
2023/05/28 11:47:37;;;;;;;16.10;6.50;;;;;;;;;;5004006;28;20048;-62
2023/05/28 11:50:06;;;;;;;16.13;5.95;;;;;;;;;;5026626;28;20060;-62
2023/05/28 11:52:33;;;;;;;16.00;6.53;;;;;;;;;;5026065;28;20049;-62
2023/05/28 11:55:01;;;;;;;15.10;5.78;;;;;;;;;;5004666;28;20041;-61
2023/05/28 11:57:33;;;;;;;15.52;6.45;;;;;;;;;;5033971;28;20058;-62
2023/05/28 12:00:06;;;;;;;13.23;5.93;;;;;;;;;;5018279;28;20037;-62
2023/05/28 12:02:50;;;;;;;13.13;6.72;;;;;;;;;;5017381;28;20041;-62
2023/05/28 12:05:17;;;;;;;21.75;8.00;;;;;;;;;;5019838;28;20075;-62
2023/05/28 12:07:53;;;;;;;17.30;6.10;;;;;;;;;;5028274;28;20050;-62
2023/05/28 12:10:26;;;;;;;18.42;7.47;;;;;;;;;;5032363;28;20049;-62
2023/05/28 12:12:56;;;;;;;31.65;12.38;;;;;;;;;;5027499;28;20088;-62
2023/05/28 12:15:27;;;;;;;23.15;10.18;;;;;;;;;;5031417;28;20053;-62
2023/05/28 12:17:56;;;;;;;15.55;6.95;;;;;;;;;;5028307;28;20049;-62
2023/05/28 12:20:22;;;;;;;17.52;8.68;;;;;;;;;;5029572;28;20049;-63
2023/05/28 12:23:01;;;;;;;15.13;6.55;;;;;;;;;;5033720;28;20052;-62
2023/05/28 12:25:27;;;;;;;12.20;6.00;;;;;;;;;;5030546;28;20037;-62
2023/05/28 12:27:53;;;;;;;14.45;6.97;;;;;;;;;;5010338;28;20048;-62
2023/05/28 12:30:20;;;;;;;16.45;6.25;;;;;;;;;;5008872;28;20487;-63
2023/05/28 12:32:46;;;;;;;16.52;6.05;;;;;;;;;;5031897;28;20045;-63
2023/05/28 12:35:12;;;;;;;15.20;6.57;;;;;;;;;;5023577;28;20482;-62
2023/05/28 12:37:39;;;;;;;16.00;6.03;;;;;;;;;;5020331;28;20111;-62
2023/05/28 12:40:06;;;;;;;16.42;6.13;;;;;;;;;;5019427;28;20062;-62
2023/05/28 12:42:32;;;;;;;15.25;6.55;;;;;;;;;;5029536;28;20414;-62
2023/05/28 12:44:58;;;;;;;16.58;6.78;;;;;;;;;;5006028;28;20034;-62
2023/05/28 12:47:24;;;;;;;16.13;6.85;;;;;;;;;;5024195;28;20403;-61
2023/05/28 12:49:50;;;;;;;13.18;6.38;;;;;;;;;;5029580;28;20049;-61
2023/05/28 12:52:16;;;;;;;16.27;6.95;;;;;;;;;;5008784;28;20979;-61
2023/05/28 12:54:42;;;;;;;15.13;7.10;;;;;;;;;;4999197;28;20057;-62
2023/05/28 12:57:08;;;;;;;18.38;8.60;;;;;;;;;;5004070;28;20526;-63
2023/05/28 12:59:35;;;;;;;24.67;8.32;;;;;;;;;;5006490;28;20487;-63
2023/05/28 13:02:02;;;;;;;17.02;7.47;;;;;;;;;;5021601;28;20260;-63
2023/05/28 13:04:28;;;;;;;16.25;7.10;;;;;;;;;;5024365;28;20042;-62
2023/05/28 13:06:54;;;;;;;13.85;6.95;;;;;;;;;;5019549;28;20388;-62
2023/05/28 13:09:20;;;;;;;15.23;7.35;;;;;;;;;;5017642;28;20049;-63
2023/05/28 13:11:46;;;;;;;17.77;7.22;;;;;;;;;;5028543;28;20057;-62
2023/05/28 13:14:12;;;;;;;17.02;7.43;;;;;;;;;;5017318;28;20060;-63
2023/05/28 13:16:38;;;;;;;17.42;6.88;;;;;;;;;;5022020;28;20041;-63
2023/05/28 13:19:05;;;;;;;20.52;7.70;;;;;;;;;;5022741;28;20639;-63
2023/05/28 13:21:31;;;;;;;17.45;8.20;;;;;;;;;;5013638;28;20053;-63
2023/05/28 13:23:58;;;;;;;17.35;7.70;;;;;;;;;;5025541;28;20430;-63
2023/05/28 13:26:26;;;;;;;15.52;7.45;;;;;;;;;;5018722;28;20077;-63
2023/05/28 13:28:52;;;;;;;14.52;7.30;;;;;;;;;;5024783;28;20049;-63
2023/05/28 13:31:19;;;;;;;16.45;7.28;;;;;;;;;;5009967;28;20053;-62
2023/05/28 13:33:45;;;;;;;15.23;6.88;;;;;;;;;;5012134;28;20046;-62
2023/05/28 13:36:12;;;;;;;20.00;7.57;;;;;;;;;;5013157;28;20051;-63
2023/05/28 13:38:41;;;;;;;17.02;7.00;;;;;;;;;;5020610;28;20042;-62
2023/05/28 13:41:07;;;;;;;13.73;6.65;;;;;;;;;;5029392;28;20065;-62
2023/05/28 13:43:37;;;;;;;15.45;6.78;;;;;;;;;;5028386;28;20396;-62
2023/05/28 13:46:05;;;;;;;15.27;6.70;;;;;;;;;;5023917;28;20153;-62
2023/05/28 13:48:33;;;;;;;17.02;7.38;;;;;;;;;;5014726;28;20046;-62
2023/05/28 13:51:00;;;;;;;16.80;7.95;;;;;;;;;;4996924;28;20046;-63
2023/05/28 13:53:28;;;;;;;16.57;7.57;;;;;;;;;;5025392;28;20391;-62
2023/05/28 13:55:55;;;;;;;16.10;8.17;;;;;;;;;;5026480;28;20045;-62
2023/05/28 13:58:22;;;;;;;16.60;7.93;;;;;;;;;;5021598;28;20049;-63
2023/05/28 14:00:48;;;;;;;14.52;7.30;;;;;;;;;;5012150;28;20057;-63
2023/05/28 14:03:16;;;;;;;15.23;6.95;;;;;;;;;;5020066;28;20041;-62
2023/05/28 14:05:44;;;;;;;17.08;7.32;;;;;;;;;;5020983;28;20032;-61
2023/05/28 14:08:12;;;;;;;15.23;7.53;;;;;;;;;;5020636;28;20050;-64
2023/05/28 14:10:39;;;;;;;15.20;7.05;;;;;;;;;;5028662;28;20109;-64
2023/05/28 14:13:05;;;;;;;14.52;6.72;;;;;;;;;;5018442;28;20415;-64
2023/05/28 14:15:31;;;;;;;19.75;6.70;;;;;;;;;;5018599;28;20049;-64
2023/05/28 14:17:58;;;;;;;15.82;6.40;;;;;;;;;;5019996;28;20033;-63
2023/05/28 14:20:25;;;;;;;17.33;6.78;;;;;;;;;;5024352;28;20123;-62
2023/05/28 14:22:51;;;;;;;11.27;6.35;;;;;;;;;;5007683;28;20056;-63
2023/05/28 14:25:17;;;;;;;15.00;6.63;;;;;;;;;;5017364;28;20399;-64
2023/05/28 14:27:44;;;;;;;12.93;6.50;;;;;;;;;;4991367;28;20044;-62
2023/05/28 14:30:10;;;;;;;15.52;7.00;;;;;;;;;;5012137;28;20038;-65
2023/05/28 14:32:36;;;;;;;18.30;6.82;;;;;;;;;;5002276;28;20041;-62
2023/05/28 14:35:03;;;;;;;13.13;6.35;;;;;;;;;;5025781;28;20040;-64